Time;durP1;ratioP1;P1;durP2;ratioP2;P2;SDS_P1;SDS_P2;PMS_P1;PMS_P2;Temp;Humidity;BMP_temperature;BMP_pressure;BME280_temperature;BME280_humidity;BME280_pressure;Samples;Min_cycle;Max_cycle;Signal;HPM_P1;HPM_P2
2022/11/08 00:02:39;;;;;;;8.02;3.35;;;14.50;99.90;;;;;;5013945;28;101993;-73
2022/11/08 00:16:07;;;;;;;9.43;2.83;;;14.50;99.90;;;;;;5013579;28;101573;-74
2022/11/08 00:18:34;;;;;;;10.77;2.75;;;14.50;99.90;;;;;;5014163;28;98520;-74
2022/11/08 00:21:02;;;;;;;6.00;2.80;;;14.50;99.90;;;;;;5013767;28;98658;-73
2022/11/08 00:23:29;;;;;;;8.05;2.40;;;14.50;99.90;;;;;;5014083;28;101131;-73
2022/11/08 00:25:55;;;;;;;7.93;2.60;;;14.50;99.90;;;;;;5014837;28;98730;-74
2022/11/08 00:28:22;;;;;;;5.90;2.78;;;14.50;99.90;;;;;;5013935;28;98465;-73
2022/11/08 00:30:49;;;;;;;7.80;2.60;;;14.50;99.90;;;;;;5013695;28;99336;-74
2022/11/08 00:33:16;;;;;;;9.48;3.03;;;14.60;99.90;;;;;;5013374;28;101926;-73
2022/11/08 00:35:43;;;;;;;8.05;3.17;;;14.50;99.90;;;;;;5013760;28;99155;-74
2022/11/08 00:38:10;;;;;;;7.80;2.60;;;14.50;99.90;;;;;;5015065;28;99063;-73
2022/11/08 00:40:37;;;;;;;11.25;2.88;;;14.50;99.90;;;;;;5014627;28;98499;-73
2022/11/08 00:43:04;;;;;;;6.82;2.47;;;14.60;99.90;;;;;;5014229;28;107414;-74
2022/11/08 00:45:30;;;;;;;7.22;2.97;;;14.60;99.90;;;;;;5013357;28;101722;-74
2022/11/08 00:47:57;;;;;;;5.82;3.03;;;14.50;99.90;;;;;;5015138;28;98602;-74
2022/11/08 00:50:24;;;;;;;8.70;2.25;;;14.60;99.90;;;;;;4996705;28;98500;-73
2022/11/08 00:52:51;;;;;;;8.70;2.90;;;14.50;99.90;;;;;;5013037;28;101978;-73
2022/11/08 00:55:18;;;;;;;7.38;3.00;;;14.60;99.90;;;;;;5014217;28;99161;-73
2022/11/08 00:57:45;;;;;;;8.02;2.65;;;14.60;99.90;;;;;;5014939;28;98496;-74
2022/11/08 01:00:25;;;;;;;10.10;2.95;;;14.60;99.90;;;;;;5014714;28;98601;-73
2022/11/08 01:03:17;;;;;;;8.00;2.80;;;14.50;99.90;;;;;;5013017;28;99364;-74
2022/11/08 01:05:39;;;;;;;8.18;2.35;;;14.50;99.90;;;;;;5013085;28;101599;-73
2022/11/08 01:08:06;;;;;;;11.38;3.13;;;14.40;99.90;;;;;;5014658;28;98444;-73
2022/11/08 01:10:34;;;;;;;8.65;2.92;;;14.40;99.90;;;;;;5014529;28;98499;-74
2022/11/08 01:13:01;;;;;;;8.95;3.10;;;14.40;99.90;;;;;;5012911;28;101051;-73
2022/11/08 01:15:28;;;;;;;8.38;2.70;;;14.40;99.90;;;;;;5014571;28;98431;-73
2022/11/08 01:17:55;;;;;;;11.52;3.03;;;14.30;99.90;;;;;;5013358;28;98587;-74
2022/11/08 01:20:21;;;;;;;11.88;2.97;;;14.20;99.90;;;;;;5012860;28;99898;-73
2022/11/08 01:22:48;;;;;;;7.70;2.25;;;14.10;99.90;;;;;;5012687;28;103071;-74
2022/11/08 01:25:15;;;;;;;5.63;2.42;;;14.00;99.90;;;;;;5012792;28;98998;-74
2022/11/08 01:27:42;;;;;;;9.20;2.92;;;14.00;99.90;;;;;;5014516;28;98418;-74
2022/11/08 01:30:10;;;;;;;9.55;2.70;;;14.00;99.90;;;;;;5012859;28;98732;-74
2022/11/08 01:32:36;;;;;;;10.55;3.15;;;13.90;99.90;;;;;;5012632;28;102470;-74
2022/11/08 01:35:04;;;;;;;5.75;2.42;;;13.90;99.90;;;;;;5012161;28;101680;-74
2022/11/08 01:37:31;;;;;;;13.38;3.00;;;13.90;99.90;;;;;;4996462;28;97812;-74
2022/11/08 01:39:58;;;;;;;7.80;2.90;;;13.80;99.90;;;;;;5014121;28;98669;-73
2022/11/08 01:42:29;;;;;;;7.00;2.60;;;13.80;99.90;;;;;;5012585;28;102004;-74
2022/11/08 01:44:57;;;;;;;12.50;2.88;;;13.80;99.90;;;;;;5013412;28;99367;-73
2022/11/08 01:47:23;;;;;;;12.15;3.13;;;13.70;99.90;;;;;;5011928;28;105081;-73
2022/11/08 01:49:53;;;;;;;7.57;2.85;;;13.60;99.90;;;;;;5012171;28;98554;-73
2022/11/08 01:52:34;;;;;;;8.88;3.10;;;13.60;99.90;;;;;;4994658;28;101696;-73
2022/11/08 01:55:23;;;;;;;6.60;2.70;;;13.60;99.90;;;;;;5012563;28;99021;-73
2022/11/08 01:57:56;;;;;;;7.70;2.42;;;13.50;99.90;;;;;;5014268;28;98505;-73
2022/11/08 02:00:22;;;;;;;6.15;2.63;;;13.40;99.90;;;;;;5029454;28;98526;-73
2022/11/08 02:02:56;;;;;;;11.48;3.00;;;13.40;99.90;;;;;;5012428;28;98711;-73
2022/11/08 02:05:26;;;;;;;8.43;2.88;;;13.50;99.90;;;;;;5011804;28;100836;-73
2022/11/08 02:08:05;;;;;;;6.50;2.50;;;13.40;99.90;;;;;;5014107;28;98574;-73
2022/11/08 02:10:35;;;;;;;9.20;2.75;;;13.50;99.90;;;;;;5012026;28;99309;-74
2022/11/08 02:13:03;;;;;;;9.23;2.92;;;13.50;99.90;;;;;;5012151;28;99393;-73
2022/11/08 02:15:33;;;;;;;10.52;3.78;;;13.40;99.90;;;;;;5028608;28;101955;-73
2022/11/08 02:18:00;;;;;;;12.15;3.03;;;13.40;99.90;;;;;;5028542;28;102343;-74
2022/11/08 02:20:27;;;;;;;7.85;3.03;;;13.40;99.90;;;;;;4995397;28;98574;-73
2022/11/08 02:23:20;;;;;;;12.40;3.40;;;13.40;99.90;;;;;;4995038;28;100548;-73
2022/11/08 02:25:47;;;;;;;8.93;3.95;;;13.30;99.90;;;;;;5012346;28;98938;-73
2022/11/08 02:28:14;;;;;;;12.38;3.42;;;13.20;99.90;;;;;;5013921;28;97707;-74
2022/11/08 02:30:42;;;;;;;11.77;3.10;;;13.20;99.90;;;;;;4995697;28;98608;-73
2022/11/08 02:33:18;;;;;;;6.32;3.10;;;13.30;99.90;;;;;;5011446;28;101916;-73
2022/11/08 02:35:53;;;;;;;7.80;3.33;;;13.30;99.90;;;;;;5011125;28;101532;-74
2022/11/08 02:38:22;;;;;;;6.57;3.10;;;13.30;99.90;;;;;;5013291;28;98523;-74
2022/11/08 02:40:52;;;;;;;9.18;3.15;;;13.30;99.90;;;;;;5013106;28;98512;-73
2022/11/08 02:43:20;;;;;;;6.50;2.67;;;13.20;99.90;;;;;;5011105;28;100206;-73
2022/11/08 02:45:48;;;;;;;7.57;2.80;;;13.20;99.90;;;;;;5012801;28;99120;-73
2022/11/08 02:48:16;;;;;;;6.75;2.75;;;13.20;99.90;;;;;;5011440;28;98999;-73
2022/11/08 02:50:43;;;;;;;6.10;2.80;;;13.20;99.90;;;;;;5028348;28;98568;-73
2022/11/08 02:53:10;;;;;;;5.95;2.75;;;13.10;99.90;;;;;;5012819;28;98528;-74
2022/11/08 02:55:37;;;;;;;7.07;2.55;;;13.10;99.90;;;;;;5011712;28;98496;-73
2022/11/08 02:58:04;;;;;;;7.70;3.10;;;13.10;99.90;;;;;;4995162;28;99306;-73
2022/11/08 03:00:31;;;;;;;7.45;2.83;;;13.00;99.90;;;;;;5011000;28;99303;-73
2022/11/08 03:02:58;;;;;;;9.75;2.92;;;13.00;99.90;;;;;;5012324;28;99361;-73
2022/11/08 03:05:27;;;;;;;7.47;3.25;;;13.00;99.90;;;;;;5010409;28;115681;-73
2022/11/08 03:07:54;;;;;;;7.78;2.92;;;13.00;99.90;;;;;;4994785;28;98448;-73
2022/11/08 03:10:23;;;;;;;9.25;3.00;;;12.90;99.90;;;;;;5011430;28;98961;-73
2022/11/08 03:13:01;;;;;;;11.25;2.58;;;12.90;99.90;;;;;;5012353;28;99342;-73
2022/11/08 03:15:29;;;;;;;6.15;2.63;;;12.90;99.90;;;;;;5010979;28;101800;-73
2022/11/08 03:17:56;;;;;;;10.85;2.72;;;12.80;99.90;;;;;;5013073;28;97776;-73
2022/11/08 03:20:24;;;;;;;5.93;2.40;;;12.80;99.90;;;;;;5011015;28;98565;-73
2022/11/08 03:22:58;;;;;;;9.25;2.88;;;12.90;99.90;;;;;;5010882;28;101924;-73
2022/11/08 03:25:25;;;;;;;5.45;2.53;;;12.80;99.90;;;;;;5010451;28;99253;-74
2022/11/08 03:27:52;;;;;;;10.00;3.15;;;12.80;99.90;;;;;;5011509;28;98651;-73
2022/11/08 03:30:19;;;;;;;11.35;3.25;;;12.80;99.90;;;;;;5012150;28;98501;-73
2022/11/08 03:32:48;;;;;;;8.30;3.22;;;12.80;99.90;;;;;;5010804;28;101893;-73
2022/11/08 03:35:15;;;;;;;5.22;2.50;;;12.80;99.90;;;;;;5010901;28;99235;-73
2022/11/08 03:37:52;;;;;;;6.18;2.53;;;12.80;99.90;;;;;;5011248;28;98497;-73
2022/11/08 03:40:19;;;;;;;9.85;2.90;;;12.80;99.90;;;;;;5011277;28;98544;-73
2022/11/08 03:42:46;;;;;;;12.38;2.78;;;12.70;99.90;;;;;;5012671;28;98463;-73
2022/11/08 03:45:16;;;;;;;9.73;3.25;;;12.70;99.90;;;;;;5011937;28;98538;-73
2022/11/08 03:47:45;;;;;;;8.65;2.92;;;12.70;99.90;;;;;;5012650;28;99037;-73
2022/11/08 03:50:14;;;;;;;5.80;2.85;;;12.70;99.90;;;;;;5010119;28;99377;-73
2022/11/08 03:52:46;;;;;;;6.20;2.97;;;12.70;99.90;;;;;;5009994;28;113041;-73
2022/11/08 03:55:13;;;;;;;5.97;2.90;;;12.70;99.90;;;;;;5012000;28;98954;-73
2022/11/08 03:57:41;;;;;;;8.68;2.60;;;12.60;99.90;;;;;;5010290;28;98535;-73
2022/11/08 04:00:10;;;;;;;7.25;3.17;;;12.60;99.90;;;;;;5010778;28;98521;-73
2022/11/08 04:02:38;;;;;;;7.10;2.20;;;12.70;99.90;;;;;;5011747;28;105123;-74
2022/11/08 04:05:06;;;;;;;8.95;2.90;;;12.60;99.90;;;;;;5011879;28;99110;-73
2022/11/08 04:07:34;;;;;;;7.80;2.65;;;12.60;99.90;;;;;;5012538;28;98463;-73
2022/11/08 04:10:02;;;;;;;5.28;2.30;;;12.60;99.90;;;;;;5010486;28;98707;-73
2022/11/08 04:15:18;;;;;;;5.97;2.67;;;12.60;99.90;;;;;;5013763;28;99230;-73
2022/11/08 04:23:22;;;;;;;13.27;3.08;;;12.50;99.90;;;;;;5014932;28;99491;-73
2022/11/08 04:25:58;;;;;;;6.63;2.90;;;12.50;99.90;;;;;;5013751;28;99123;-73
2022/11/08 04:28:31;;;;;;;3.63;2.22;;;12.50;99.90;;;;;;5015455;28;98390;-73
2022/11/08 04:31:03;;;;;;;6.63;2.60;;;12.50;99.90;;;;;;5015343;28;98608;-73
2022/11/08 04:33:31;;;;;;;6.97;2.80;;;12.40;99.90;;;;;;5013807;28;100979;-73
2022/11/08 04:36:06;;;;;;;3.78;2.60;;;12.40;99.90;;;;;;4997324;28;98995;-73
2022/11/08 04:38:33;;;;;;;7.55;3.00;;;12.40;99.90;;;;;;5013717;28;98996;-73
2022/11/08 04:41:06;;;;;;;8.05;3.30;;;12.40;99.90;;;;;;5013678;28;99474;-73
2022/11/08 04:43:33;;;;;;;5.90;3.27;;;12.30;99.90;;;;;;5029838;28;101933;-73
2022/11/08 04:46:06;;;;;;;5.05;2.70;;;12.30;99.90;;;;;;5014409;28;104292;-73
2022/11/08 04:48:33;;;;;;;9.02;3.10;;;12.30;99.90;;;;;;5015091;28;98528;-73
2022/11/08 04:51:11;;;;;;;6.75;3.33;;;12.20;99.90;;;;;;5013686;28;98576;-73
2022/11/08 04:53:39;;;;;;;10.65;3.75;;;12.20;99.90;;;;;;5013089;28;102176;-73
2022/11/08 04:56:09;;;;;;;9.80;3.78;;;12.20;99.90;;;;;;5014395;28;99016;-73
2022/11/08 04:58:38;;;;;;;9.15;3.60;;;12.20;99.90;;;;;;5014950;28;97806;-73
2022/11/08 05:01:07;;;;;;;4.72;2.83;;;12.20;99.90;;;;;;5013210;28;99114;-73
2022/11/08 05:03:34;;;;;;;7.43;3.55;;;12.10;99.90;;;;;;5012852;28;99346;-73
2022/11/08 05:06:03;;;;;;;9.32;3.05;;;12.10;99.90;;;;;;5014100;28;99175;-73
2022/11/08 05:08:31;;;;;;;6.05;3.80;;;12.10;99.90;;;;;;5013122;28;98600;-73
2022/11/08 05:11:10;;;;;;;8.75;3.03;;;12.10;99.90;;;;;;5013290;28;98517;-74
2022/11/08 05:13:38;;;;;;;5.47;3.13;;;12.10;99.90;;;;;;5014097;28;99108;-73
2022/11/08 05:16:18;;;;;;;6.22;2.80;;;12.10;99.90;;;;;;5012231;28;115204;-73
2022/11/08 05:18:45;;;;;;;5.20;2.97;;;12.10;99.90;;;;;;5012751;28;98459;-73
2022/11/08 05:24:05;;;;;;;8.18;2.63;;;12.00;99.90;;;;;;5013162;28;101042;-73
2022/11/08 05:26:34;;;;;;;7.20;3.10;;;12.00;99.90;;;;;;5012833;28;98434;-73
2022/11/08 05:29:01;;;;;;;8.73;3.40;;;12.00;99.90;;;;;;5013936;28;99481;-73
2022/11/08 05:31:28;;;;;;;6.90;3.30;;;12.00;99.90;;;;;;5012766;28;99350;-73
2022/11/08 05:33:55;;;;;;;10.55;3.80;;;12.00;99.90;;;;;;5013949;28;99296;-73
2022/11/08 05:36:22;;;;;;;6.72;2.85;;;12.00;99.90;;;;;;5013784;28;99011;-73
2022/11/08 05:38:49;;;;;;;6.25;2.80;;;12.00;99.90;;;;;;5012648;28;98552;-73
2022/11/08 05:41:19;;;;;;;6.93;3.50;;;12.00;99.90;;;;;;5012673;28;98636;-73
2022/11/08 05:43:47;;;;;;;4.90;3.22;;;12.00;99.90;;;;;;4995390;28;100443;-73
2022/11/08 05:46:16;;;;;;;6.43;3.17;;;12.00;99.90;;;;;;5012395;28;101574;-73
2022/11/08 05:48:45;;;;;;;6.78;3.30;;;12.00;99.90;;;;;;5013038;28;97803;-73
2022/11/08 05:51:14;;;;;;;9.10;3.38;;;12.00;99.90;;;;;;5011505;28;99270;-73
2022/11/08 05:53:41;;;;;;;8.02;3.10;;;12.00;99.90;;;;;;5012227;28;99349;-73
2022/11/08 05:56:08;;;;;;;5.72;3.40;;;12.00;99.90;;;;;;5012114;28;99771;-73
2022/11/08 05:58:36;;;;;;;8.73;3.20;;;12.10;99.90;;;;;;5012602;28;98504;-73
2022/11/08 06:01:08;;;;;;;8.00;3.22;;;12.00;99.90;;;;;;5012388;28;98642;-73
2022/11/08 06:03:36;;;;;;;9.18;3.78;;;12.00;99.90;;;;;;4995243;28;101820;-73
2022/11/08 06:06:11;;;;;;;8.35;3.60;;;12.00;99.90;;;;;;5013439;28;99157;-73
2022/11/08 06:08:38;;;;;;;5.63;3.03;;;12.00;99.90;;;;;;5012172;28;98618;-73
2022/11/08 06:11:10;;;;;;;8.43;3.55;;;12.00;99.90;;;;;;5012318;28;98675;-73
2022/11/08 06:13:38;;;;;;;9.95;3.55;;;11.90;99.90;;;;;;5013596;28;98807;-73
2022/11/08 06:16:10;;;;;;;8.25;3.08;;;11.90;99.90;;;;;;5012871;28;109141;-73
2022/11/08 06:18:38;;;;;;;5.78;3.20;;;11.90;99.90;;;;;;5012144;28;98526;-73
2022/11/08 06:21:09;;;;;;;7.20;3.67;;;11.80;99.90;;;;;;5011987;28;99902;-73
2022/11/08 06:23:36;;;;;;;6.28;3.42;;;11.80;99.90;;;;;;5013172;28;99264;-74
2022/11/08 06:26:03;;;;;;;6.00;3.78;;;11.80;99.90;;;;;;5013261;28;99089;-73
2022/11/08 06:28:30;;;;;;;6.80;4.20;;;11.80;99.90;;;;;;5012113;28;98583;-73
2022/11/08 06:30:59;;;;;;;7.05;3.65;;;11.80;99.90;;;;;;5011848;28;99594;-73
2022/11/08 06:33:26;;;;;;;13.77;4.53;;;11.80;99.90;;;;;;5012711;28;99317;-73
2022/11/08 06:35:53;;;;;;;7.90;3.95;;;11.80;99.90;;;;;;5011401;28;99069;-73
2022/11/08 06:38:21;;;;;;;7.07;3.38;;;11.80;99.90;;;;;;5013200;28;97746;-73
2022/11/08 06:40:48;;;;;;;8.02;3.75;;;11.80;99.90;;;;;;5011547;28;98656;-73
2022/11/08 06:43:15;;;;;;;8.23;3.58;;;11.70;99.90;;;;;;5012648;28;99393;-73
2022/11/08 06:45:46;;;;;;;7.75;3.88;;;11.70;99.90;;;;;;5012325;28;99307;-73
2022/11/08 06:48:13;;;;;;;8.82;3.60;;;11.80;99.90;;;;;;5012874;28;98516;-73
2022/11/08 06:50:41;;;;;;;7.47;3.20;;;11.80;99.90;;;;;;5012768;28;98506;-73
2022/11/08 06:53:11;;;;;;;5.85;3.15;;;11.70;99.90;;;;;;5012515;28;99275;-73
2022/11/08 06:55:38;;;;;;;8.75;3.70;;;11.80;99.90;;;;;;5012463;28;98989;-73
2022/11/08 06:58:05;;;;;;;7.50;3.00;;;11.80;99.90;;;;;;5012844;28;98440;-73
2022/11/08 07:00:32;;;;;;;10.23;3.80;;;11.80;99.90;;;;;;5012928;28;98691;-73
2022/11/08 07:03:01;;;;;;;5.95;3.35;;;11.80;99.90;;;;;;5012477;28;98654;-73
2022/11/08 07:05:30;;;;;;;6.20;2.78;;;11.80;99.90;;;;;;5011106;28;98541;-73
2022/11/08 07:07:58;;;;;;;4.05;2.50;;;11.80;99.90;;;;;;5012474;28;99271;-73
2022/11/08 07:10:27;;;;;;;5.65;2.92;;;11.90;99.90;;;;;;5011131;28;99414;-73
2022/11/08 07:12:59;;;;;;;4.63;2.60;;;12.00;99.90;;;;;;5011960;28;99217;-73
2022/11/08 07:15:26;;;;;;;6.28;3.45;;;12.10;99.90;;;;;;5010650;28;101720;-73
2022/11/08 07:17:53;;;;;;;7.05;2.45;;;12.10;99.90;;;;;;5012650;28;99641;-73
2022/11/08 07:20:21;;;;;;;4.53;2.50;;;12.20;99.90;;;;;;5011238;28;98474;-73
2022/11/08 07:22:48;;;;;;;7.80;3.03;;;12.20;99.90;;;;;;5010916;28;99506;-73
2022/11/08 07:25:15;;;;;;;7.32;2.70;;;12.30;99.90;;;;;;5010650;28;101865;-73
2022/11/08 07:27:42;;;;;;;4.53;2.63;;;12.40;99.90;;;;;;4995231;28;97973;-73
2022/11/08 07:30:09;;;;;;;4.00;2.17;;;12.40;99.90;;;;;;5011066;28;98645;-73
2022/11/08 07:32:36;;;;;;;5.63;2.40;;;12.40;99.90;;;;;;5012223;28;99317;-73
2022/11/08 07:35:03;;;;;;;6.13;2.75;;;12.50;99.90;;;;;;5010392;28;99804;-73
2022/11/08 07:37:31;;;;;;;4.45;2.60;;;12.50;99.90;;;;;;5011494;28;98558;-73
2022/11/08 07:39:58;;;;;;;8.65;2.17;;;12.60;99.90;;;;;;5010752;28;98660;-73
2022/11/08 07:42:25;;;;;;;6.40;3.45;;;12.60;99.90;;;;;;5012150;28;99334;-73
2022/11/08 07:45:08;;;;;;;5.10;2.65;;;12.60;99.90;;;;;;5010369;28;101835;-74
2022/11/08 07:47:35;;;;;;;3.72;2.10;;;12.60;99.90;;;;;;5011145;28;98639;-73
2022/11/08 07:50:03;;;;;;;5.45;2.78;;;12.70;99.90;;;;;;5013314;28;98555;-73
2022/11/08 07:52:30;;;;;;;6.15;2.38;;;12.70;99.90;;;;;;5014752;28;98411;-73
2022/11/08 07:54:57;;;;;;;3.75;1.92;;;12.70;99.90;;;;;;5013580;28;99500;-73
2022/11/08 07:57:24;;;;;;;2.42;2.17;;;12.80;99.90;;;;;;4997876;28;99181;-73
2022/11/08 07:59:51;;;;;;;5.10;2.10;;;12.90;99.90;;;;;;5013868;28;99895;-73
2022/11/08 08:02:17;;;;;;;4.13;2.05;;;12.90;99.90;;;;;;5013755;28;101807;-73
2022/11/08 08:04:44;;;;;;;4.57;2.30;;;12.90;99.90;;;;;;5014084;28;99038;-74
2022/11/08 08:07:11;;;;;;;6.78;2.60;;;13.00;99.90;;;;;;5015441;28;98509;-73
2022/11/08 08:09:38;;;;;;;4.00;2.30;;;13.00;99.90;;;;;;5013832;28;98658;-73
2022/11/08 08:12:07;;;;;;;3.85;2.10;;;13.10;99.90;;;;;;5014819;28;98433;-73
2022/11/08 08:14:33;;;;;;;5.13;2.35;;;13.10;99.90;;;;;;5013714;28;98844;-74
2022/11/08 08:17:00;;;;;;;4.07;2.25;;;13.10;99.90;;;;;;5015434;28;97773;-74
2022/11/08 08:19:27;;;;;;;4.78;2.50;;;13.20;99.90;;;;;;5015333;28;98542;-73
2022/11/08 08:21:54;;;;;;;4.07;2.13;;;13.30;99.90;;;;;;5013185;28;101826;-74
2022/11/08 08:24:21;;;;;;;4.22;2.20;;;13.40;99.90;;;;;;4996440;28;102137;-74
2022/11/08 08:26:48;;;;;;;3.78;2.33;;;13.50;99.90;;;;;;5030514;28;98590;-73
2022/11/08 08:29:15;;;;;;;5.78;2.58;;;13.60;99.90;;;;;;5015093;28;99055;-73
2022/11/08 08:31:42;;;;;;;4.80;2.58;;;13.70;99.90;;;;;;5013620;28;99176;-73
2022/11/08 08:34:09;;;;;;;3.83;2.05;;;13.80;99.90;;;;;;5013151;28;101953;-74
2022/11/08 08:36:36;;;;;;;3.50;2.00;;;13.90;99.90;;;;;;4997370;28;98588;-73
2022/11/08 08:39:03;;;;;;;6.32;2.40;;;14.00;99.90;;;;;;5013639;28;99057;-74
2022/11/08 08:41:30;;;;;;;6.10;2.35;;;14.00;99.90;;;;;;4997064;28;101302;-73
2022/11/08 08:43:57;;;;;;;4.30;2.08;;;14.10;99.90;;;;;;5013092;28;98581;-73
2022/11/08 08:46:24;;;;;;;4.47;2.15;;;14.10;99.90;;;;;;5013654;28;98592;-73
2022/11/08 08:48:51;;;;;;;2.10;1.88;;;14.20;99.90;;;;;;5030196;28;99812;-73
2022/11/08 08:51:18;;;;;;;5.03;2.20;;;14.20;99.90;;;;;;5011717;28;102005;-74
2022/11/08 08:53:45;;;;;;;3.83;1.88;;;14.20;99.90;;;;;;4996370;28;99232;-74
2022/11/08 08:56:12;;;;;;;4.25;2.13;;;14.20;99.90;;;;;;5012786;28;100274;-74
2022/11/08 08:58:39;;;;;;;4.68;2.00;;;14.20;99.90;;;;;;5013602;28;99137;-73
2022/11/08 09:01:10;;;;;;;4.13;2.05;;;14.20;99.90;;;;;;5013647;28;99423;-74
2022/11/08 09:03:57;;;;;;;4.85;2.20;;;14.30;99.90;;;;;;4999442;28;101635;-74
2022/11/08 09:06:24;;;;;;;2.50;2.22;;;14.30;99.90;;;;;;5014870;28;97677;-73
2022/11/08 09:08:51;;;;;;;5.18;2.50;;;14.40;99.90;;;;;;5013355;28;98531;-74
2022/11/08 09:11:18;;;;;;;3.15;2.08;;;14.50;99.90;;;;;;5029378;28;100187;-74
2022/11/08 09:13:45;;;;;;;3.55;2.50;;;14.60;99.90;;;;;;5012655;28;99406;-73
2022/11/08 09:16:13;;;;;;;3.58;2.13;;;14.60;99.90;;;;;;5014179;28;98508;-73
2022/11/08 09:18:40;;;;;;;3.85;2.00;;;14.60;99.90;;;;;;5014536;28;99476;-74
2022/11/08 09:21:07;;;;;;;3.63;1.95;;;14.70;99.90;;;;;;5013740;28;99357;-74
2022/11/08 09:23:34;;;;;;;5.70;2.10;;;14.70;99.90;;;;;;5012799;28;98982;-73
2022/11/08 09:26:04;;;;;;;4.75;2.25;;;14.80;99.90;;;;;;5012613;28;98581;-74
2022/11/08 09:28:32;;;;;;;3.85;2.45;;;14.80;99.90;;;;;;5014214;28;98500;-74
2022/11/08 09:31:04;;;;;;;2.75;1.88;;;14.90;99.90;;;;;;5013048;28;98632;-74
2022/11/08 09:33:31;;;;;;;3.38;2.35;;;15.00;99.90;;;;;;5029571;28;101011;-74
2022/11/08 09:36:00;;;;;;;6.03;2.30;;;15.00;99.90;;;;;;5012613;28;98561;-74
2022/11/08 09:38:27;;;;;;;3.85;2.38;;;15.00;99.90;;;;;;5012474;28;99341;-74
2022/11/08 09:41:14;;;;;;;5.85;2.00;;;15.00;99.90;;;;;;5013787;28;99568;-73
2022/11/08 09:43:47;;;;;;;4.82;3.83;;;15.20;99.90;;;;;;5012684;28;98995;-73
2022/11/08 09:46:46;;;;;;;5.68;1.92;;;15.20;99.90;;;;;;5014278;28;99040;-74
2022/11/08 09:49:19;;;;;;;3.47;1.52;;;15.40;99.90;;;;;;5001307;28;98490;-74
2022/11/08 09:51:47;;;;;;;3.42;1.75;;;15.40;99.90;;;;;;5011393;28;101732;-74
2022/11/08 09:54:23;;;;;;;3.45;1.80;;;15.50;99.90;;;;;;5011854;28;99025;-74
2022/11/08 09:56:53;;;;;;;2.90;1.58;;;15.60;99.90;;;;;;5012826;28;97817;-73
2022/11/08 09:59:27;;;;;;;21.13;11.90;;;15.60;99.90;;;;;;5013635;28;98991;-74
2022/11/08 10:01:54;;;;;;;10.88;5.63;;;15.60;99.90;;;;;;5028174;28;101773;-73
2022/11/08 10:04:25;;;;;;;6.35;2.30;;;15.70;99.90;;;;;;4994142;28;108193;-74
2022/11/08 10:07:10;;;;;;;23.20;14.52;;;15.80;99.90;;;;;;5012189;28;98571;-73
2022/11/08 10:09:43;;;;;;;61.33;38.28;;;15.90;99.90;;;;;;5011787;28;98512;-73
2022/11/08 10:12:27;;;;;;;5.90;5.30;;;15.80;99.90;;;;;;5011657;28;99217;-74
2022/11/08 10:15:31;;;;;;;4.35;2.40;;;15.90;99.90;;;;;;5013394;28;99091;-74
2022/11/08 10:18:26;;;;;;;3.45;2.20;;;15.90;99.90;;;;;;5013751;28;98846;-74
2022/11/08 10:21:14;;;;;;;4.10;2.22;;;16.00;99.90;;;;;;5013373;28;98513;-74
2022/11/08 10:24:03;;;;;;;3.80;3.50;;;16.10;99.90;;;;;;5013553;28;98567;-74
2022/11/08 10:26:36;;;;;;;2.70;1.70;;;16.10;99.90;;;;;;5012951;28;98659;-74
2022/11/08 10:29:12;;;;;;;3.28;2.03;;;16.30;99.90;;;;;;5013634;28;98551;-74
2022/11/08 10:31:41;;;;;;;2.30;1.55;;;16.30;99.90;;;;;;5013151;28;99208;-74
2022/11/08 10:34:20;;;;;;;1.95;1.55;;;16.30;99.90;;;;;;5011564;28;101736;-74
2022/11/08 10:36:53;;;;;;;1.70;1.58;;;16.40;99.90;;;;;;5011440;28;101536;-74
2022/11/08 10:39:31;;;;;;;3.47;1.55;;;16.50;99.90;;;;;;5012150;28;99197;-74
2022/11/08 10:42:24;;;;;;;3.10;1.80;;;16.60;99.90;;;;;;5013378;28;98629;-74
2022/11/08 10:44:51;;;;;;;16.88;15.48;;;16.70;99.90;;;;;;5012918;28;99461;-74
2022/11/08 10:47:25;;;;;;;4.38;3.85;;;16.70;99.90;;;;;;4994173;28;99004;-75
2022/11/08 10:49:53;;;;;;;4.43;3.53;;;16.80;99.90;;;;;;5013562;28;97730;-74
2022/11/08 10:52:41;;;;;;;2.83;2.50;;;16.80;99.90;;;;;;5011565;28;98583;-74
2022/11/08 10:55:23;;;;;;;2.47;2.28;;;16.90;99.90;;;;;;5012741;28;99312;-74
2022/11/08 10:57:50;;;;;;;2.60;1.92;;;16.90;99.90;;;;;;4996653;28;101518;-74
2022/11/08 11:00:19;;;;;;;4.20;2.30;;;16.90;99.90;;;;;;5012848;28;98903;-74
2022/11/08 11:02:49;;;;;;;2.83;2.25;;;17.00;99.90;;;;;;5012693;28;98553;-74
2022/11/08 11:05:20;;;;;;;2.63;2.40;;;16.90;99.90;;;;;;5010792;28;101857;-74
2022/11/08 11:08:03;;;;;;;3.58;1.80;;;16.90;99.90;;;;;;5010855;28;101533;-74
2022/11/08 11:10:39;;;;;;;3.13;1.90;;;16.90;99.90;;;;;;5012726;28;98516;-74
2022/11/08 11:13:21;;;;;;;3.13;1.80;;;16.80;99.90;;;;;;5011279;28;98577;-74
2022/11/08 11:16:04;;;;;;;4.05;1.90;;;16.80;99.90;;;;;;5011512;28;99535;-74
2022/11/08 11:18:46;;;;;;;3.28;1.75;;;16.70;99.90;;;;;;5011123;28;98492;-73
2022/11/08 11:21:21;;;;;;;2.53;1.60;;;16.70;99.90;;;;;;5012883;28;98982;-73
2022/11/08 11:23:51;;;;;;;3.67;1.70;;;16.70;99.90;;;;;;5014346;28;99773;-73
2022/11/08 11:26:33;;;;;;;3.55;1.67;;;16.60;99.90;;;;;;5014468;28;99344;-74
2022/11/08 11:29:02;;;;;;;4.40;2.55;;;16.70;99.90;;;;;;4997936;28;101665;-73
2022/11/08 11:31:35;;;;;;;4.38;2.47;;;16.60;99.90;;;;;;5015067;28;98516;-73
2022/11/08 11:34:17;;;;;;;6.05;1.77;;;16.60;99.90;;;;;;5016355;28;99018;-73
2022/11/08 11:37:07;;;;;;;3.40;1.70;;;16.70;99.90;;;;;;5014503;28;99213;-73
2022/11/08 11:39:36;;;;;;;3.67;1.83;;;16.70;99.90;;;;;;5015710;28;98863;-73
2022/11/08 11:42:21;;;;;;;3.63;1.85;;;16.70;99.90;;;;;;5016244;28;97749;-73
2022/11/08 11:45:13;;;;;;;;;;;16.80;99.90;;;;;;5015041;28;98568;-73
2022/11/08 11:47:46;;;;;;;5.47;2.00;;;16.80;99.90;;;;;;5015355;28;101717;-73
2022/11/08 11:50:29;;;;;;;2.97;1.70;;;16.90;99.90;;;;;;5012659;28;101921;-73
2022/11/08 11:52:58;;;;;;;3.53;1.70;;;17.00;99.90;;;;;;5016032;28;98423;-73
2022/11/08 11:55:47;;;;;;;2.03;1.83;;;17.00;99.90;;;;;;5013745;28;108299;-73
2022/11/08 11:58:52;;;;;;;5.63;5.13;;;17.20;99.90;;;;;;5014096;28;101928;-73
2022/11/08 12:01:43;;;;;;;3.72;2.10;;;17.30;99.90;;;;;;5014162;28;99104;-73
2022/11/08 12:04:45;;;;;;;4.20;2.80;;;17.20;99.90;;;;;;4997753;28;98642;-73
2022/11/08 12:07:25;;;;;;;2.45;1.48;;;17.10;99.90;;;;;;4996917;28;98646;-73
2022/11/08 12:10:14;;;;;;;5.15;2.40;;;17.20;99.90;;;;;;5015727;28;98403;-74
2022/11/08 12:12:55;;;;;;;2.47;1.88;;;17.30;99.90;;;;;;5013826;28;98488;-73
2022/11/08 12:15:40;;;;;;;4.88;2.03;;;17.30;99.90;;;;;;5014218;28;98493;-74
2022/11/08 12:18:19;;;;;;;3.35;1.90;;;17.40;99.90;;;;;;5015205;28;99213;-74
2022/11/08 12:21:13;;;;;;;2.83;2.05;;;17.40;99.90;;;;;;5013624;28;101892;-74
2022/11/08 12:24:16;;;;;;;3.15;2.10;;;17.40;99.90;;;;;;5014875;28;99126;-73
2022/11/08 12:27:04;;;;;;;4.45;1.83;;;17.40;99.90;;;;;;5013984;28;98549;-73
2022/11/08 12:29:46;;;;;;;4.47;1.60;;;17.40;99.90;;;;;;5013778;28;98582;-73
2022/11/08 12:32:20;;;;;;;3.22;2.00;;;17.40;99.90;;;;;;5013338;28;102217;-73
2022/11/08 12:35:13;;;;;;;4.78;2.55;;;17.40;99.90;;;;;;5014174;28;98992;-73
2022/11/08 12:37:46;;;;;;;3.60;1.35;;;17.50;99.90;;;;;;5030671;28;97914;-74
2022/11/08 12:40:26;;;;;;;3.97;1.92;;;17.40;99.90;;;;;;5015353;28;98541;-74
2022/11/08 12:43:10;;;;;;;7.10;4.03;;;17.40;99.90;;;;;;5015138;28;99187;-73
2022/11/08 12:46:00;;;;;;;1.95;1.70;;;17.40;99.90;;;;;;5014146;28;99296;-73
2022/11/08 12:48:44;;;;;;;4.60;2.83;;;17.40;99.90;;;;;;5015024;28;98482;-73
2022/11/08 12:51:30;;;;;;;6.63;2.33;;;17.50;99.90;;;;;;5014721;28;98519;-73
2022/11/08 12:54:18;;;;;;;4.97;1.85;;;17.50;99.90;;;;;;5014435;28;99305;-73
2022/11/08 12:56:47;;;;;;;5.30;2.95;;;17.50;99.90;;;;;;5014371;28;99138;-73
2022/11/08 12:59:27;;;;;;;2.95;2.55;;;17.40;99.90;;;;;;5014575;28;98510;-73
2022/11/08 13:01:55;;;;;;;2.20;2.00;;;17.50;99.90;;;;;;5030016;28;98963;-73
2022/11/08 13:04:55;;;;;;;2.33;1.77;;;17.30;99.90;;;;;;4996533;28;101216;-74
2022/11/08 13:07:40;;;;;;;2.88;2.08;;;17.40;99.90;;;;;;5011583;28;98490;-73
2022/11/08 13:10:07;;;;;;;2.97;1.70;;;17.30;99.90;;;;;;5013430;28;98560;-73
2022/11/08 13:12:56;;;;;;;4.05;1.88;;;17.30;99.90;;;;;;5014119;28;99380;-74
2022/11/08 13:15:25;;;;;;;3.83;1.73;;;17.30;99.90;;;;;;5013202;28;99329;-73
2022/11/08 13:18:07;;;;;;;3.22;1.60;;;17.30;99.90;;;;;;5013782;28;105557;-74
2022/11/08 13:20:46;;;;;;;2.58;1.63;;;17.40;99.90;;;;;;5013042;28;99132;-73
2022/11/08 13:23:30;;;;;;;2.05;1.85;;;17.40;99.90;;;;;;5014700;28;98504;-73
2022/11/08 13:26:21;;;;;;;2.97;1.90;;;17.50;99.90;;;;;;5014063;28;99387;-73
2022/11/08 13:28:49;;;;;;;3.55;2.25;;;17.60;99.90;;;;;;5005036;28;98998;-73
2022/11/08 13:31:40;;;;;;;4.70;2.00;;;17.50;99.90;;;;;;5012742;28;108168;-73